sensor_id;sensor_type;location;lat;lon;timestamp;temperature;humidity
78315;SHT31;68596;52.080;4.662;2023-04-25T00:01:56;9.57;68.29
78315;SHT31;68596;52.080;4.662;2023-04-25T00:04:41;9.54;68.25
78315;SHT31;68596;52.080;4.662;2023-04-25T00:07:25;9.50;68.25
78315;SHT31;68596;52.080;4.662;2023-04-25T00:10:09;9.50;68.41
78315;SHT31;68596;52.080;4.662;2023-04-25T00:12:55;9.51;68.38
78315;SHT31;68596;52.080;4.662;2023-04-25T00:15:39;9.51;68.35
78315;SHT31;68596;52.080;4.662;2023-04-25T00:18:25;9.48;68.30
78315;SHT31;68596;52.080;4.662;2023-04-25T00:21:12;9.50;68.33
78315;SHT31;68596;52.080;4.662;2023-04-25T00:23:56;9.48;68.22
78315;SHT31;68596;52.080;4.662;2023-04-25T00:26:40;9.47;68.20
78315;SHT31;68596;52.080;4.662;2023-04-25T00:29:24;9.48;68.35
78315;SHT31;68596;52.080;4.662;2023-04-25T00:32:08;9.46;68.30
78315;SHT31;68596;52.080;4.662;2023-04-25T00:34:52;9.47;68.04
78315;SHT31;68596;52.080;4.662;2023-04-25T00:37:36;9.44;68.09
78315;SHT31;68596;52.080;4.662;2023-04-25T00:40:21;9.41;67.67
78315;SHT31;68596;52.080;4.662;2023-04-25T00:43:05;9.41;67.58
78315;SHT31;68596;52.080;4.662;2023-04-25T00:45:50;9.39;67.99
78315;SHT31;68596;52.080;4.662;2023-04-25T00:48:35;9.36;67.94
78315;SHT31;68596;52.080;4.662;2023-04-25T00:51:21;9.39;68.15
78315;SHT31;68596;52.080;4.662;2023-04-25T00:54:06;9.36;67.95
78315;SHT31;68596;52.080;4.662;2023-04-25T00:56:52;9.39;68.00
78315;SHT31;68596;52.080;4.662;2023-04-25T00:59:37;9.34;68.09
78315;SHT31;68596;52.080;4.662;2023-04-25T01:02:22;9.36;68.18
78315;SHT31;68596;52.080;4.662;2023-04-25T01:05:06;9.36;68.07
78315;SHT31;68596;52.080;4.662;2023-04-25T01:07:51;9.37;67.86
78315;SHT31;68596;52.080;4.662;2023-04-25T01:10:36;9.36;67.74
78315;SHT31;68596;52.080;4.662;2023-04-25T01:13:20;9.36;67.54
78315;SHT31;68596;52.080;4.662;2023-04-25T01:16:05;9.33;67.61
78315;SHT31;68596;52.080;4.662;2023-04-25T01:18:49;9.34;67.58
78315;SHT31;68596;52.080;4.662;2023-04-25T01:21:34;9.31;67.55
78315;SHT31;68596;52.080;4.662;2023-04-25T01:24:19;9.30;67.62
78315;SHT31;68596;52.080;4.662;2023-04-25T01:27:04;9.27;67.39
78315;SHT31;68596;52.080;4.662;2023-04-25T01:29:50;9.27;67.45
78315;SHT31;68596;52.080;4.662;2023-04-25T01:32:36;9.24;67.43
78315;SHT31;68596;52.080;4.662;2023-04-25T01:35:23;9.22;67.39
78315;SHT31;68596;52.080;4.662;2023-04-25T01:38:08;9.22;67.70
78315;SHT31;68596;52.080;4.662;2023-04-25T01:40:53;9.17;67.82
78315;SHT31;68596;52.080;4.662;2023-04-25T01:43:38;9.19;67.95
78315;SHT31;68596;52.080;4.662;2023-04-25T01:46:23;9.17;67.69
78315;SHT31;68596;52.080;4.662;2023-04-25T01:49:07;9.15;67.63
78315;SHT31;68596;52.080;4.662;2023-04-25T01:51:51;9.12;67.79
78315;SHT31;68596;52.080;4.662;2023-04-25T01:54:35;9.12;67.87
78315;SHT31;68596;52.080;4.662;2023-04-25T01:57:19;9.09;67.76
78315;SHT31;68596;52.080;4.662;2023-04-25T02:00:06;9.06;67.64
78315;SHT31;68596;52.080;4.662;2023-04-25T02:02:53;9.05;67.74
78315;SHT31;68596;52.080;4.662;2023-04-25T02:05:38;9.03;67.88
78315;SHT31;68596;52.080;4.662;2023-04-25T02:08:22;9.03;67.89
78315;SHT31;68596;52.080;4.662;2023-04-25T02:11:06;9.03;67.95
78315;SHT31;68596;52.080;4.662;2023-04-25T02:13:50;9.06;68.14
78315;SHT31;68596;52.080;4.662;2023-04-25T02:16:34;9.05;68.15
78315;SHT31;68596;52.080;4.662;2023-04-25T02:19:19;9.06;68.23
78315;SHT31;68596;52.080;4.662;2023-04-25T02:22:04;9.03;68.21
78315;SHT31;68596;52.080;4.662;2023-04-25T02:24:48;9.05;68.20
78315;SHT31;68596;52.080;4.662;2023-04-25T02:27:32;9.05;68.17
78315;SHT31;68596;52.080;4.662;2023-04-25T02:30:16;9.05;68.14
78315;SHT31;68596;52.080;4.662;2023-04-25T02:33:01;9.07;68.09
78315;SHT31;68596;52.080;4.662;2023-04-25T02:35:45;9.09;68.17
78315;SHT31;68596;52.080;4.662;2023-04-25T02:38:29;9.06;68.23
78315;SHT31;68596;52.080;4.662;2023-04-25T02:41:13;9.10;68.31
78315;SHT31;68596;52.080;4.662;2023-04-25T02:43:58;9.06;68.34
78315;SHT31;68596;52.080;4.662;2023-04-25T02:46:42;9.10;68.40
78315;SHT31;68596;52.080;4.662;2023-04-25T02:49:26;9.10;68.35
78315;SHT31;68596;52.080;4.662;2023-04-25T02:52:11;9.15;68.28
78315;SHT31;68596;52.080;4.662;2023-04-25T02:54:55;9.13;68.08
78315;SHT31;68596;52.080;4.662;2023-04-25T02:57:40;9.15;68.22
78315;SHT31;68596;52.080;4.662;2023-04-25T03:00:24;9.13;68.13
78315;SHT31;68596;52.080;4.662;2023-04-25T03:03:08;9.16;68.43
78315;SHT31;68596;52.080;4.662;2023-04-25T03:05:52;9.23;68.24
78315;SHT31;68596;52.080;4.662;2023-04-25T03:08:36;9.23;68.03
78315;SHT31;68596;52.080;4.662;2023-04-25T03:11:20;9.24;68.12
78315;SHT31;68596;52.080;4.662;2023-04-25T03:14:04;9.26;68.27
78315;SHT31;68596;52.080;4.662;2023-04-25T03:16:49;9.27;68.13
78315;SHT31;68596;52.080;4.662;2023-04-25T03:19:32;9.33;68.07
78315;SHT31;68596;52.080;4.662;2023-04-25T03:22:17;9.33;67.90
78315;SHT31;68596;52.080;4.662;2023-04-25T03:25:02;9.36;68.07
78315;SHT31;68596;52.080;4.662;2023-04-25T03:27:46;9.39;68.13
78315;SHT31;68596;52.080;4.662;2023-04-25T03:30:30;9.40;67.64
78315;SHT31;68596;52.080;4.662;2023-04-25T03:33:14;9.43;67.52
78315;SHT31;68596;52.080;4.662;2023-04-25T03:35:58;9.37;67.93
78315;SHT31;68596;52.080;4.662;2023-04-25T03:38:42;9.39;67.98
78315;SHT31;68596;52.080;4.662;2023-04-25T03:41:26;9.41;68.00
78315;SHT31;68596;52.080;4.662;2023-04-25T03:44:11;9.40;67.94
78315;SHT31;68596;52.080;4.662;2023-04-25T03:46:55;9.37;68.03
78315;SHT31;68596;52.080;4.662;2023-04-25T03:49:39;9.39;67.91
78315;SHT31;68596;52.080;4.662;2023-04-25T03:52:23;9.39;67.94
78315;SHT31;68596;52.080;4.662;2023-04-25T03:55:08;9.36;68.05
78315;SHT31;68596;52.080;4.662;2023-04-25T03:57:52;9.36;68.09
78315;SHT31;68596;52.080;4.662;2023-04-25T04:00:36;9.36;68.44
78315;SHT31;68596;52.080;4.662;2023-04-25T04:03:20;9.39;68.38
78315;SHT31;68596;52.080;4.662;2023-04-25T04:06:06;9.34;68.39
78315;SHT31;68596;52.080;4.662;2023-04-25T04:08:50;9.33;68.39
78315;SHT31;68596;52.080;4.662;2023-04-25T04:11:34;9.34;68.46
78315;SHT31;68596;52.080;4.662;2023-04-25T04:14:20;9.31;68.39
78315;SHT31;68596;52.080;4.662;2023-04-25T04:17:04;9.31;68.52
78315;SHT31;68596;52.080;4.662;2023-04-25T04:19:49;9.33;68.30
78315;SHT31;68596;52.080;4.662;2023-04-25T04:22:34;9.30;68.31
78315;SHT31;68596;52.080;4.662;2023-04-25T04:25:18;9.33;68.22
78315;SHT31;68596;52.080;4.662;2023-04-25T04:28:03;9.34;68.26
78315;SHT31;68596;52.080;4.662;2023-04-25T04:30:48;9.31;68.07
78315;SHT31;68596;52.080;4.662;2023-04-25T04:33:35;9.29;68.39
78315;SHT31;68596;52.080;4.662;2023-04-25T04:36:20;9.27;68.21
78315;SHT31;68596;52.080;4.662;2023-04-25T04:39:06;9.24;68.34
78315;SHT31;68596;52.080;4.662;2023-04-25T04:41:52;9.24;68.18
78315;SHT31;68596;52.080;4.662;2023-04-25T04:44:37;9.27;68.10
78315;SHT31;68596;52.080;4.662;2023-04-25T04:47:23;9.30;68.04
78315;SHT31;68596;52.080;4.662;2023-04-25T04:50:08;9.30;67.99
78315;SHT31;68596;52.080;4.662;2023-04-25T04:52:53;9.33;67.99
78315;SHT31;68596;52.080;4.662;2023-04-25T04:55:38;9.31;68.12
78315;SHT31;68596;52.080;4.662;2023-04-25T04:58:22;9.33;68.31
78315;SHT31;68596;52.080;4.662;2023-04-25T05:01:07;9.33;68.36
78315;SHT31;68596;52.080;4.662;2023-04-25T05:03:51;9.31;68.40
78315;SHT31;68596;52.080;4.662;2023-04-25T05:06:36;9.31;68.55
78315;SHT31;68596;52.080;4.662;2023-04-25T05:09:20;9.33;68.84
78315;SHT31;68596;52.080;4.662;2023-04-25T05:12:04;9.31;68.66
78315;SHT31;68596;52.080;4.662;2023-04-25T05:14:48;9.31;68.97
78315;SHT31;68596;52.080;4.662;2023-04-25T05:17:35;9.30;68.74
78315;SHT31;68596;52.080;4.662;2023-04-25T05:20:19;9.30;68.46
78315;SHT31;68596;52.080;4.662;2023-04-25T05:23:04;9.29;68.20
78315;SHT31;68596;52.080;4.662;2023-04-25T05:25:48;9.23;68.65
78315;SHT31;68596;52.080;4.662;2023-04-25T05:28:35;9.24;68.94
78315;SHT31;68596;52.080;4.662;2023-04-25T05:31:20;9.26;68.99
78315;SHT31;68596;52.080;4.662;2023-04-25T05:34:04;9.24;69.45
78315;SHT31;68596;52.080;4.662;2023-04-25T05:36:48;9.23;68.87
78315;SHT31;68596;52.080;4.662;2023-04-25T05:39:32;9.17;69.30
78315;SHT31;68596;52.080;4.662;2023-04-25T05:42:16;9.15;69.69
78315;SHT31;68596;52.080;4.662;2023-04-25T05:45:01;9.16;69.64
78315;SHT31;68596;52.080;4.662;2023-04-25T05:47:45;9.12;69.58
78315;SHT31;68596;52.080;4.662;2023-04-25T05:50:29;9.12;69.84
78315;SHT31;68596;52.080;4.662;2023-04-25T05:53:13;9.09;69.84
78315;SHT31;68596;52.080;4.662;2023-04-25T05:55:58;9.09;69.94
78315;SHT31;68596;52.080;4.662;2023-04-25T05:58:42;9.12;69.81
78315;SHT31;68596;52.080;4.662;2023-04-25T06:01:26;9.16;69.72
78315;SHT31;68596;52.080;4.662;2023-04-25T06:04:10;9.12;69.99
78315;SHT31;68596;52.080;4.662;2023-04-25T06:06:54;9.09;69.78
78315;SHT31;68596;52.080;4.662;2023-04-25T06:09:38;9.06;70.29
78315;SHT31;68596;52.080;4.662;2023-04-25T06:12:23;8.90;70.83
78315;SHT31;68596;52.080;4.662;2023-04-25T06:15:07;8.79;70.63
78315;SHT31;68596;52.080;4.662;2023-04-25T06:17:52;8.73;70.70
78315;SHT31;68596;52.080;4.662;2023-04-25T06:20:36;8.76;70.90
78315;SHT31;68596;52.080;4.662;2023-04-25T06:23:20;8.77;70.86
78315;SHT31;68596;52.080;4.662;2023-04-25T06:26:04;8.77;70.95
78315;SHT31;68596;52.080;4.662;2023-04-25T06:28:48;8.80;70.92
78315;SHT31;68596;52.080;4.662;2023-04-25T06:31:32;8.85;71.02
78315;SHT31;68596;52.080;4.662;2023-04-25T06:34:18;8.87;71.02
78315;SHT31;68596;52.080;4.662;2023-04-25T06:37:02;8.92;71.17
78315;SHT31;68596;52.080;4.662;2023-04-25T06:39:46;8.97;70.82
78315;SHT31;68596;52.080;4.662;2023-04-25T06:42:30;9.00;70.94
78315;SHT31;68596;52.080;4.662;2023-04-25T06:45:14;9.07;70.73
78315;SHT31;68596;52.080;4.662;2023-04-25T06:47:59;9.09;70.61
78315;SHT31;68596;52.080;4.662;2023-04-25T06:50:43;9.16;70.89
78315;SHT31;68596;52.080;4.662;2023-04-25T06:53:27;9.17;71.22
78315;SHT31;68596;52.080;4.662;2023-04-25T06:56:11;9.23;70.82
78315;SHT31;68596;52.080;4.662;2023-04-25T06:58:55;9.27;70.71
78315;SHT31;68596;52.080;4.662;2023-04-25T07:01:39;9.31;71.20
78315;SHT31;68596;52.080;4.662;2023-04-25T07:04:24;9.36;70.60
78315;SHT31;68596;52.080;4.662;2023-04-25T07:07:08;9.40;70.67
78315;SHT31;68596;52.080;4.662;2023-04-25T07:09:52;9.44;70.52
78315;SHT31;68596;52.080;4.662;2023-04-25T07:12:36;9.48;70.45
78315;SHT31;68596;52.080;4.662;2023-04-25T07:15:20;9.55;70.21
78315;SHT31;68596;52.080;4.662;2023-04-25T07:18:04;9.60;70.30
78315;SHT31;68596;52.080;4.662;2023-04-25T07:20:48;9.65;70.47
78315;SHT31;68596;52.080;4.662;2023-04-25T07:23:32;9.71;70.86
78315;SHT31;68596;52.080;4.662;2023-04-25T07:26:16;9.80;69.69
78315;SHT31;68596;52.080;4.662;2023-04-25T07:29:01;9.85;68.12
78315;SHT31;68596;52.080;4.662;2023-04-25T07:31:45;9.94;67.08
78315;SHT31;68596;52.080;4.662;2023-04-25T07:34:30;9.99;66.99
78315;SHT31;68596;52.080;4.662;2023-04-25T07:37:14;10.03;67.39
78315;SHT31;68596;52.080;4.662;2023-04-25T07:39:58;10.12;66.67
78315;SHT31;68596;52.080;4.662;2023-04-25T07:42:42;10.19;66.90
78315;SHT31;68596;52.080;4.662;2023-04-25T07:45:26;10.25;67.04
78315;SHT31;68596;52.080;4.662;2023-04-25T07:48:10;10.29;66.63
78315;SHT31;68596;52.080;4.662;2023-04-25T07:50:54;10.41;63.36
78315;SHT31;68596;52.080;4.662;2023-04-25T07:53:38;10.39;62.16
78315;SHT31;68596;52.080;4.662;2023-04-25T07:56:23;10.29;62.81
78315;SHT31;68596;52.080;4.662;2023-04-25T07:59:06;10.23;61.49
78315;SHT31;68596;52.080;4.662;2023-04-25T08:01:51;10.12;62.62
78315;SHT31;68596;52.080;4.662;2023-04-25T08:04:35;10.15;63.76
78315;SHT31;68596;52.080;4.662;2023-04-25T08:07:19;10.18;63.34
78315;SHT31;68596;52.080;4.662;2023-04-25T08:10:04;10.33;64.03
78315;SHT31;68596;52.080;4.662;2023-04-25T08:12:49;10.42;64.72
78315;SHT31;68596;52.080;4.662;2023-04-25T08:15:33;10.48;63.89
78315;SHT31;68596;52.080;4.662;2023-04-25T08:18:18;10.63;61.37
78315;SHT31;68596;52.080;4.662;2023-04-25T08:21:02;10.67;62.91
78315;SHT31;68596;52.080;4.662;2023-04-25T08:23:46;10.76;64.22
78315;SHT31;68596;52.080;4.662;2023-04-25T08:26:30;10.83;62.71
78315;SHT31;68596;52.080;4.662;2023-04-25T08:29:14;10.89;62.72
78315;SHT31;68596;52.080;4.662;2023-04-25T08:31:59;10.93;59.89
78315;SHT31;68596;52.080;4.662;2023-04-25T08:34:43;10.80;59.15
78315;SHT31;68596;52.080;4.662;2023-04-25T08:37:27;10.57;59.75
78315;SHT31;68596;52.080;4.662;2023-04-25T08:40:14;10.43;60.20
78315;SHT31;68596;52.080;4.662;2023-04-25T08:43:00;10.29;61.16
78315;SHT31;68596;52.080;4.662;2023-04-25T08:45:47;10.32;62.06
78315;SHT31;68596;52.080;4.662;2023-04-25T08:48:33;10.41;61.42
78315;SHT31;68596;52.080;4.662;2023-04-25T08:51:22;10.53;60.61
78315;SHT31;68596;52.080;4.662;2023-04-25T08:54:11;10.60;61.12
78315;SHT31;68596;52.080;4.662;2023-04-25T08:56:57;10.64;59.05
78315;SHT31;68596;52.080;4.662;2023-04-25T08:59:46;10.66;59.65
78315;SHT31;68596;52.080;4.662;2023-04-25T09:02:30;10.70;57.58
78315;SHT31;68596;52.080;4.662;2023-04-25T09:05:15;10.81;57.26
78315;SHT31;68596;52.080;4.662;2023-04-25T09:08:00;10.84;57.52
78315;SHT31;68596;52.080;4.662;2023-04-25T09:10:44;10.87;58.02
78315;SHT31;68596;52.080;4.662;2023-04-25T09:13:29;10.79;62.48
78315;SHT31;68596;52.080;4.662;2023-04-25T09:16:13;10.74;63.35
78315;SHT31;68596;52.080;4.662;2023-04-25T09:19:01;10.66;63.51
78315;SHT31;68596;52.080;4.662;2023-04-25T09:21:49;10.64;64.18
78315;SHT31;68596;52.080;4.662;2023-04-25T09:24:40;10.63;64.03
78315;SHT31;68596;52.080;4.662;2023-04-25T09:27:26;10.66;64.65
78315;SHT31;68596;52.080;4.662;2023-04-25T09:30:11;10.74;65.53
78315;SHT31;68596;52.080;4.662;2023-04-25T09:33:07;10.89;64.56
78315;SHT31;68596;52.080;4.662;2023-04-25T09:35:51;11.03;64.81
78315;SHT31;68596;52.080;4.662;2023-04-25T09:38:44;11.21;64.15
78315;SHT31;68596;52.080;4.662;2023-04-25T09:41:29;11.25;63.35
78315;SHT31;68596;52.080;4.662;2023-04-25T09:44:13;11.25;63.23
78315;SHT31;68596;52.080;4.662;2023-04-25T09:46:57;11.04;61.81
78315;SHT31;68596;52.080;4.662;2023-04-25T09:49:43;10.76;63.16
78315;SHT31;68596;52.080;4.662;2023-04-25T09:52:28;10.64;63.49
78315;SHT31;68596;52.080;4.662;2023-04-25T09:55:12;10.57;63.21
78315;SHT31;68596;52.080;4.662;2023-04-25T09:58:03;10.53;63.16
78315;SHT31;68596;52.080;4.662;2023-04-25T10:00:49;10.56;64.42
78315;SHT31;68596;52.080;4.662;2023-04-25T10:03:39;10.63;65.09
78315;SHT31;68596;52.080;4.662;2023-04-25T10:06:25;10.80;64.76
78315;SHT31;68596;52.080;4.662;2023-04-25T10:09:12;10.94;65.21
78315;SHT31;68596;52.080;4.662;2023-04-25T10:11:56;11.08;64.63
78315;SHT31;68596;52.080;4.662;2023-04-25T10:14:42;11.21;65.45
78315;SHT31;68596;52.080;4.662;2023-04-25T10:17:26;11.37;61.79
78315;SHT31;68596;52.080;4.662;2023-04-25T10:20:12;11.47;62.08
78315;SHT31;68596;52.080;4.662;2023-04-25T10:23:06;11.52;61.58
78315;SHT31;68596;52.080;4.662;2023-04-25T10:25:55;11.59;61.53
78315;SHT31;68596;52.080;4.662;2023-04-25T10:29:00;11.61;62.04
78315;SHT31;68596;52.080;4.662;2023-04-25T10:31:47;11.62;62.03
78315;SHT31;68596;52.080;4.662;2023-04-25T10:34:43;11.79;61.40
78315;SHT31;68596;52.080;4.662;2023-04-25T10:37:27;11.82;61.04
78315;SHT31;68596;52.080;4.662;2023-04-25T10:40:12;11.89;59.41
78315;SHT31;68596;52.080;4.662;2023-04-25T10:46:23;11.86;59.42
78315;SHT31;68596;52.080;4.662;2023-04-25T10:49:08;11.85;57.59
78315;SHT31;68596;52.080;4.662;2023-04-25T10:52:16;11.86;58.59
78315;SHT31;68596;52.080;4.662;2023-04-25T10:55:03;11.86;58.98
78315;SHT31;68596;52.080;4.662;2023-04-25T10:57:48;11.92;55.61
78315;SHT31;68596;52.080;4.662;2023-04-25T11:00:35;11.85;54.38
78315;SHT31;68596;52.080;4.662;2023-04-25T11:03:24;11.71;54.54
78315;SHT31;68596;52.080;4.662;2023-04-25T11:06:29;11.65;55.39
78315;SHT31;68596;52.080;4.662;2023-04-25T11:09:13;11.59;56.73
78315;SHT31;68596;52.080;4.662;2023-04-25T11:11:59;11.72;57.44
78315;SHT31;68596;52.080;4.662;2023-04-25T11:14:43;11.85;56.39
78315;SHT31;68596;52.080;4.662;2023-04-25T11:17:29;11.92;54.31
78315;SHT31;68596;52.080;4.662;2023-04-25T11:20:13;11.92;54.69
78315;SHT31;68596;52.080;4.662;2023-04-25T11:22:59;11.93;57.11
78315;SHT31;68596;52.080;4.662;2023-04-25T11:25:46;12.02;54.34
78315;SHT31;68596;52.080;4.662;2023-04-25T11:28:30;12.06;54.50
78315;SHT31;68596;52.080;4.662;2023-04-25T11:31:14;12.08;55.67
78315;SHT31;68596;52.080;4.662;2023-04-25T11:33:59;12.08;55.13
78315;SHT31;68596;52.080;4.662;2023-04-25T11:36:45;12.08;55.81
78315;SHT31;68596;52.080;4.662;2023-04-25T11:39:29;12.08;57.43
78315;SHT31;68596;52.080;4.662;2023-04-25T11:42:13;12.09;55.09
78315;SHT31;68596;52.080;4.662;2023-04-25T11:44:58;11.93;53.96
78315;SHT31;68596;52.080;4.662;2023-04-25T11:47:42;11.74;55.13
78315;SHT31;68596;52.080;4.662;2023-04-25T11:50:28;11.71;54.72
78315;SHT31;68596;52.080;4.662;2023-04-25T11:53:12;11.74;53.48
78315;SHT31;68596;52.080;4.662;2023-04-25T11:55:57;11.74;54.31
78315;SHT31;68596;52.080;4.662;2023-04-25T11:58:58;11.76;54.63
78315;SHT31;68596;52.080;4.662;2023-04-25T12:01:50;11.81;56.85
78315;SHT31;68596;52.080;4.662;2023-04-25T12:04:34;11.90;54.08
78315;SHT31;68596;52.080;4.662;2023-04-25T12:07:18;11.88;51.83
78315;SHT31;68596;52.080;4.662;2023-04-25T12:10:10;11.83;53.84
78315;SHT31;68596;52.080;4.662;2023-04-25T12:12:55;11.88;53.20
78315;SHT31;68596;52.080;4.662;2023-04-25T12:15:40;11.95;54.26
78315;SHT31;68596;52.080;4.662;2023-04-25T12:18:25;12.05;53.16
78315;SHT31;68596;52.080;4.662;2023-04-25T12:21:11;12.08;55.17
78315;SHT31;68596;52.080;4.662;2023-04-25T12:23:55;12.08;54.41
78315;SHT31;68596;52.080;4.662;2023-04-25T12:26:49;12.00;55.06
78315;SHT31;68596;52.080;4.662;2023-04-25T12:29:34;11.99;54.86
78315;SHT31;68596;52.080;4.662;2023-04-25T12:32:19;11.93;56.58
78315;SHT31;68596;52.080;4.662;2023-04-25T12:35:04;11.95;56.78
78315;SHT31;68596;52.080;4.662;2023-04-25T12:37:49;12.00;55.50
78315;SHT31;68596;52.080;4.662;2023-04-25T12:40:33;12.09;53.62
78315;SHT31;68596;52.080;4.662;2023-04-25T12:43:17;12.16;55.65
78315;SHT31;68596;52.080;4.662;2023-04-25T12:46:04;12.13;55.33
78315;SHT31;68596;52.080;4.662;2023-04-25T12:48:49;11.96;55.12
78315;SHT31;68596;52.080;4.662;2023-04-25T12:51:34;11.88;57.00
78315;SHT31;68596;52.080;4.662;2023-04-25T12:54:18;11.90;55.90
78315;SHT31;68596;52.080;4.662;2023-04-25T12:57:02;11.92;54.78
78315;SHT31;68596;52.080;4.662;2023-04-25T12:59:46;11.93;56.16
78315;SHT31;68596;52.080;4.662;2023-04-25T13:02:31;11.95;55.91
78315;SHT31;68596;52.080;4.662;2023-04-25T13:05:15;11.98;55.70
78315;SHT31;68596;52.080;4.662;2023-04-25T13:07:59;12.05;57.63
78315;SHT31;68596;52.080;4.662;2023-04-25T13:10:44;12.06;55.94
78315;SHT31;68596;52.080;4.662;2023-04-25T13:13:28;12.08;55.22
78315;SHT31;68596;52.080;4.662;2023-04-25T13:16:12;12.00;55.39
78315;SHT31;68596;52.080;4.662;2023-04-25T13:18:58;12.08;58.10
78315;SHT31;68596;52.080;4.662;2023-04-25T13:21:42;12.06;58.36
78315;SHT31;68596;52.080;4.662;2023-04-25T13:24:26;11.95;59.16
78315;SHT31;68596;52.080;4.662;2023-04-25T13:27:10;11.81;59.50
78315;SHT31;68596;52.080;4.662;2023-04-25T13:29:54;11.69;61.27
78315;SHT31;68596;52.080;4.662;2023-04-25T13:32:39;11.69;60.98
78315;SHT31;68596;52.080;4.662;2023-04-25T13:35:24;11.69;62.05
78315;SHT31;68596;52.080;4.662;2023-04-25T13:38:09;11.82;60.54
78315;SHT31;68596;52.080;4.662;2023-04-25T13:40:53;11.92;60.08
78315;SHT31;68596;52.080;4.662;2023-04-25T13:43:37;12.03;58.10
78315;SHT31;68596;52.080;4.662;2023-04-25T13:46:21;12.09;57.39
78315;SHT31;68596;52.080;4.662;2023-04-25T13:49:05;12.10;58.20
78315;SHT31;68596;52.080;4.662;2023-04-25T13:51:49;12.08;56.06
78315;SHT31;68596;52.080;4.662;2023-04-25T13:54:33;11.98;56.13
78315;SHT31;68596;52.080;4.662;2023-04-25T13:57:18;11.88;55.15
78315;SHT31;68596;52.080;4.662;2023-04-25T14:00:04;11.74;56.46
78315;SHT31;68596;52.080;4.662;2023-04-25T14:02:54;11.71;55.69
78315;SHT31;68596;52.080;4.662;2023-04-25T14:05:38;11.76;56.78
78315;SHT31;68596;52.080;4.662;2023-04-25T14:08:23;11.76;54.37
78315;SHT31;68596;52.080;4.662;2023-04-25T14:11:07;11.71;53.04
78315;SHT31;68596;52.080;4.662;2023-04-25T14:13:51;11.71;55.28
78315;SHT31;68596;52.080;4.662;2023-04-25T14:16:35;11.68;54.85
78315;SHT31;68596;52.080;4.662;2023-04-25T14:19:20;11.69;54.87
78315;SHT31;68596;52.080;4.662;2023-04-25T14:22:04;11.68;52.48
78315;SHT31;68596;52.080;4.662;2023-04-25T14:24:49;11.61;55.74
78315;SHT31;68596;52.080;4.662;2023-04-25T14:27:33;11.67;55.09
78315;SHT31;68596;52.080;4.662;2023-04-25T14:30:19;11.74;54.42
78315;SHT31;68596;52.080;4.662;2023-04-25T14:33:04;11.75;54.13
78315;SHT31;68596;52.080;4.662;2023-04-25T14:35:48;11.79;54.40
78315;SHT31;68596;52.080;4.662;2023-04-25T14:38:33;11.83;55.23
78315;SHT31;68596;52.080;4.662;2023-04-25T14:41:16;11.79;56.08
78315;SHT31;68596;52.080;4.662;2023-04-25T14:44:01;11.79;54.80
78315;SHT31;68596;52.080;4.662;2023-04-25T14:46:45;11.76;54.95
78315;SHT31;68596;52.080;4.662;2023-04-25T14:49:29;11.65;54.16
78315;SHT31;68596;52.080;4.662;2023-04-25T14:52:13;11.61;55.25
78315;SHT31;68596;52.080;4.662;2023-04-25T14:54:58;11.64;54.36
78315;SHT31;68596;52.080;4.662;2023-04-25T14:57:44;11.61;54.66
78315;SHT31;68596;52.080;4.662;2023-04-25T15:00:28;11.67;54.01
78315;SHT31;68596;52.080;4.662;2023-04-25T15:03:14;11.72;53.46
78315;SHT31;68596;52.080;4.662;2023-04-25T15:05:59;11.68;54.71
78315;SHT31;68596;52.080;4.662;2023-04-25T15:08:44;11.58;55.63
78315;SHT31;68596;52.080;4.662;2023-04-25T15:11:28;11.52;56.31
78315;SHT31;68596;52.080;4.662;2023-04-25T15:14:12;11.48;56.18
78315;SHT31;68596;52.080;4.662;2023-04-25T15:16:56;11.54;56.18
78315;SHT31;68596;52.080;4.662;2023-04-25T15:19:40;11.54;55.74
78315;SHT31;68596;52.080;4.662;2023-04-25T15:22:24;11.50;56.66
78315;SHT31;68596;52.080;4.662;2023-04-25T15:25:10;11.44;56.18
78315;SHT31;68596;52.080;4.662;2023-04-25T15:27:54;11.42;56.82
78315;SHT31;68596;52.080;4.662;2023-04-25T15:30:39;11.50;56.39
78315;SHT31;68596;52.080;4.662;2023-04-25T15:33:23;11.61;56.67
78315;SHT31;68596;52.080;4.662;2023-04-25T15:36:07;11.67;55.63
78315;SHT31;68596;52.080;4.662;2023-04-25T15:38:51;11.64;55.48
78315;SHT31;68596;52.080;4.662;2023-04-25T15:41:36;11.59;54.33
78315;SHT31;68596;52.080;4.662;2023-04-25T15:44:20;11.52;55.27
78315;SHT31;68596;52.080;4.662;2023-04-25T15:47:04;11.50;53.62
78315;SHT31;68596;52.080;4.662;2023-04-25T15:49:48;11.48;55.16
78315;SHT31;68596;52.080;4.662;2023-04-25T15:52:33;11.47;54.78
78315;SHT31;68596;52.080;4.662;2023-04-25T15:55:18;11.50;53.06
78315;SHT31;68596;52.080;4.662;2023-04-25T15:58:04;11.52;52.96
78315;SHT31;68596;52.080;4.662;2023-04-25T16:00:48;11.47;54.20
78315;SHT31;68596;52.080;4.662;2023-04-25T16:03:34;11.42;56.09
78315;SHT31;68596;52.080;4.662;2023-04-25T16:06:18;11.45;54.79
78315;SHT31;68596;52.080;4.662;2023-04-25T16:09:02;11.45;55.31
78315;SHT31;68596;52.080;4.662;2023-04-25T16:11:47;11.47;54.94
78315;SHT31;68596;52.080;4.662;2023-04-25T16:14:32;11.45;55.79
78315;SHT31;68596;52.080;4.662;2023-04-25T16:17:17;11.45;55.25
78315;SHT31;68596;52.080;4.662;2023-04-25T16:20:01;11.48;55.09
78315;SHT31;68596;52.080;4.662;2023-04-25T16:22:52;11.51;54.61
78315;SHT31;68596;52.080;4.662;2023-04-25T16:25:36;11.39;54.36
78315;SHT31;68596;52.080;4.662;2023-04-25T16:28:20;11.30;53.75
78315;SHT31;68596;52.080;4.662;2023-04-25T16:31:04;11.18;54.64
78315;SHT31;68596;52.080;4.662;2023-04-25T16:33:49;11.14;53.04
78315;SHT31;68596;52.080;4.662;2023-04-25T16:36:33;11.06;54.24
78315;SHT31;68596;52.080;4.662;2023-04-25T16:39:17;11.03;53.71
78315;SHT31;68596;52.080;4.662;2023-04-25T16:42:01;11.06;53.97
78315;SHT31;68596;52.080;4.662;2023-04-25T16:44:45;10.99;54.63
78315;SHT31;68596;52.080;4.662;2023-04-25T16:47:29;10.96;55.18
78315;SHT31;68596;52.080;4.662;2023-04-25T16:50:15;10.89;54.11
78315;SHT31;68596;52.080;4.662;2023-04-25T16:52:59;10.86;53.77
78315;SHT31;68596;52.080;4.662;2023-04-25T16:55:44;10.80;54.65
78315;SHT31;68596;52.080;4.662;2023-04-25T16:58:29;10.76;55.34
78315;SHT31;68596;52.080;4.662;2023-04-25T17:01:13;10.73;55.10
78315;SHT31;68596;52.080;4.662;2023-04-25T17:03:59;10.69;54.44
78315;SHT31;68596;52.080;4.662;2023-04-25T17:06:43;10.66;55.17
78315;SHT31;68596;52.080;4.662;2023-04-25T17:09:28;10.57;56.45
78315;SHT31;68596;52.080;4.662;2023-04-25T17:12:12;10.57;56.46
78315;SHT31;68596;52.080;4.662;2023-04-25T17:14:57;10.59;56.80
78315;SHT31;68596;52.080;4.662;2023-04-25T17:17:43;10.62;57.18
78315;SHT31;68596;52.080;4.662;2023-04-25T17:20:27;10.64;56.61
78315;SHT31;68596;52.080;4.662;2023-04-25T17:23:11;10.62;56.43
78315;SHT31;68596;52.080;4.662;2023-04-25T17:25:55;10.59;57.63
78315;SHT31;68596;52.080;4.662;2023-04-25T17:28:39;10.62;56.14
78315;SHT31;68596;52.080;4.662;2023-04-25T17:31:25;10.63;56.34
78315;SHT31;68596;52.080;4.662;2023-04-25T17:34:09;10.57;56.56